Time;durP1;ratioP1;P1;durP2;ratioP2;P2;SDS_P1;SDS_P2;PMS_P1;PMS_P2;Temp;Humidity;BMP_temperature;BMP_pressure;BME280_temperature;BME280_humidity;BME280_pressure;Samples;Min_cycle;Max_cycle;Signal;HPM_P1;HPM_P2
2022/09/04 00:00:26;;;;;;;3.17;1.00;;;;;;;17.04;59.37;101387.75;5036371;28;20481;-73
2022/09/04 00:03:14;;;;;;;3.73;1.00;;;;;;;17.04;59.63;101386.94;5036594;28;20454;-73
2022/09/04 00:05:47;;;;;;;3.70;1.03;;;;;;;17.04;58.75;101381.47;5036496;28;20467;-74
2022/09/04 00:08:45;;;;;;;3.63;1.30;;;;;;;17.07;58.99;101391.78;5036561;28;20449;-73
2022/09/04 00:11:25;;;;;;;3.30;1.27;;;;;;;17.08;59.27;101391.44;5008573;28;20471;-74
2022/09/04 00:13:57;;;;;;;3.43;0.90;;;;;;;17.04;58.98;101387.75;5036406;28;20431;-74
2022/09/04 00:16:28;;;;;;;3.87;1.37;;;;;;;17.03;59.18;101386.16;5036428;28;20419;-73
2022/09/04 00:19:01;;;;;;;4.40;1.27;;;;;;;17.03;60.12;101388.09;5036003;28;20928;-73
2022/09/04 00:21:32;;;;;;;3.40;1.30;;;;;;;17.04;60.18;101392.44;5036227;28;20517;-73
2022/09/04 00:24:04;;;;;;;3.53;1.10;;;;;;;17.01;59.92;101393.09;5036274;28;20419;-72
2022/09/04 00:26:51;;;;;;;4.33;1.27;;;;;;;16.94;60.36;101395.50;5036161;28;20466;-73
2022/09/04 00:29:24;;;;;;;3.73;1.20;;;;;;;16.96;60.58;101405.03;5035867;28;20565;-73
2022/09/04 00:31:54;;;;;;;4.10;1.20;;;;;;;16.94;61.17;101403.72;5036141;28;20454;-73
2022/09/04 00:34:37;;;;;;;3.80;1.33;;;;;;;16.90;61.83;101398.88;5036035;28;20446;-73
2022/09/04 00:37:08;;;;;;;3.33;1.20;;;;;;;16.89;61.53;101400.03;5035688;28;20836;-73
2022/09/04 00:39:43;;;;;;;3.00;1.00;;;;;;;16.85;61.02;101403.72;5035855;28;20451;-73
2022/09/04 00:42:26;;;;;;;5.37;1.17;;;;;;;16.85;60.62;101406.47;5035624;28;20430;-73
2022/09/04 00:45:14;;;;;;;4.03;1.40;;;;;;;16.82;61.13;101404.38;5035792;28;20475;-73
2022/09/04 00:47:57;;;;;;;3.10;1.00;;;;;;;16.83;61.15;101401.31;5035804;28;20431;-73
2022/09/04 00:51:10;;;;;;;3.20;0.80;;;;;;;16.83;61.76;101409.53;5035723;28;20459;-73
2022/09/04 00:53:51;;;;;;;4.07;1.30;;;;;;;16.80;62.10;101414.84;4999305;28;20862;-73
2022/09/04 00:56:49;;;;;;;7.03;1.30;;;;;;;16.79;61.28;101415.97;5035630;28;20423;-73
2022/09/04 00:59:28;;;;;;;4.03;1.00;;;;;;;16.80;61.52;101421.13;5035604;28;20431;-74
2022/09/04 01:02:01;;;;;;;3.90;1.20;;;;;;;16.80;61.85;101412.91;5035101;28;20536;-74
2022/09/04 01:04:39;;;;;;;4.27;1.07;;;;;;;16.69;62.36;101414.34;5035142;28;20431;-74
2022/09/04 01:07:25;;;;;;;3.30;0.90;;;;;;;16.68;62.47;101418.19;5035529;28;20438;-74
2022/09/04 01:10:21;;;;;;;2.90;0.80;;;;;;;16.70;62.45;101428.81;5034285;28;20435;-74
2022/09/04 01:12:59;;;;;;;3.47;0.90;;;;;;;16.69;63.20;101432.66;5032022;28;20462;-73
2022/09/04 01:15:35;;;;;;;3.33;1.10;;;;;;;16.61;63.65;101420.63;5035318;28;20423;-74
2022/09/04 01:18:09;;;;;;;3.73;0.80;;;;;;;16.60;63.50;101425.28;5035242;28;20446;-74
2022/09/04 01:20:53;;;;;;;2.80;1.00;;;;;;;16.55;63.70;101428.16;5035098;28;20491;-74
2022/09/04 01:23:40;;;;;;;3.07;1.30;;;;;;;16.45;63.15;101425.72;5035211;28;20431;-73
2022/09/04 01:26:15;;;;;;;6.83;1.00;;;;;;;16.46;63.33;101432.81;5035112;28;20467;-73
2022/09/04 01:28:53;;;;;;;3.23;1.00;;;;;;;16.47;64.08;101434.44;5035174;28;20423;-73
2022/09/04 01:31:27;;;;;;;3.00;0.90;;;;;;;16.49;64.80;101432.19;5034971;28;20459;-73
2022/09/04 01:34:05;;;;;;;3.00;1.00;;;;;;;16.49;64.00;101428.63;5034691;28;20896;-73
2022/09/04 01:36:41;;;;;;;5.37;1.40;;;;;;;16.40;64.16;101425.88;5034581;28;20415;-73
2022/09/04 01:39:07;;;;;;;3.57;1.17;;;;;;;16.38;63.77;101428.16;5034920;28;20435;-73
2022/09/04 01:41:40;;;;;;;3.23;0.90;;;;;;;16.38;64.02;101425.41;5034800;28;20835;-74
2022/09/04 01:44:09;;;;;;;3.13;0.80;;;;;;;16.37;64.25;101435.53;5034801;28;20423;-74
2022/09/04 01:47:01;;;;;;;4.83;0.80;;;;;;;16.37;63.23;101427.31;5034312;28;20900;-74
2022/09/04 01:49:36;;;;;;;3.33;0.93;;;;;;;16.36;64.05;101427.66;5034703;28;20434;-74
2022/09/04 01:52:35;;;;;;;3.17;0.97;;;;;;;16.31;64.42;101425.06;5034361;28;20795;-74
2022/09/04 01:55:12;;;;;;;3.20;0.73;;;;;;;16.34;64.43;101422.50;5034285;28;20423;-74
2022/09/04 01:57:54;;;;;;;3.90;1.00;;;;;;;16.37;63.73;101427.31;5034518;28;20439;-74
2022/09/04 02:00:22;;;;;;;3.23;1.00;;;;;;;16.34;63.75;101430.72;5034137;28;20494;-74
2022/09/04 02:03:06;;;;;;;4.20;1.00;;;;;;;16.32;63.94;101427.47;5034377;28;20423;-74
2022/09/04 02:05:48;;;;;;;3.60;1.00;;;;;;;16.28;63.79;101426.50;5034321;28;20466;-74
2022/09/04 02:08:30;;;;;;;3.57;1.10;;;;;;;16.26;63.31;101428.75;5034339;28;20493;-74
2022/09/04 02:11:02;;;;;;;3.93;0.90;;;;;;;16.23;64.84;101437.59;5033864;28;21042;-72
2022/09/04 02:13:42;;;;;;;2.93;0.70;;;;;;;16.24;64.42;101425.53;5034222;28;20427;-71
2022/09/04 02:16:14;;;;;;;3.90;0.93;;;;;;;16.18;64.97;101437.75;5033877;28;20889;-71
2022/09/04 02:18:50;;;;;;;2.80;0.70;;;;;;;16.17;65.14;101424.41;5034079;28;20432;-72
2022/09/04 02:21:25;;;;;;;4.63;1.13;;;;;;;16.16;65.09;101434.53;5033726;28;20462;-72
2022/09/04 02:24:04;;;;;;;5.33;1.30;;;;;;;16.11;65.02;101426.47;5034005;28;20439;-71
2022/09/04 02:26:40;;;;;;;3.50;1.07;;;;;;;16.11;64.56;101426.47;5033851;28;20507;-71
2022/09/04 02:29:20;;;;;;;5.30;0.90;;;;;;;16.11;65.05;101435.50;5033773;28;20800;-72
2022/09/04 02:31:55;;;;;;;3.13;0.90;;;;;;;16.07;65.00;101437.25;5033880;28;20467;-72
2022/09/04 02:34:31;;;;;;;3.27;1.10;;;;;;;16.06;66.03;101438.34;5034136;28;20423;-70
2022/09/04 02:37:07;;;;;;;3.20;1.00;;;;;;;16.05;65.27;101430.47;5033546;28;20909;-71
2022/09/04 02:39:45;;;;;;;5.23;1.10;;;;;;;16.02;65.84;101425.63;5033794;28;20847;-71
2022/09/04 02:42:19;;;;;;;3.50;1.03;;;;;;;16.00;66.05;101430.63;5033768;28;20439;-71
2022/09/04 02:44:58;;;;;;;3.77;0.93;;;;;;;16.04;65.47;101429.69;5033728;28;20430;-70
2022/09/04 02:47:32;;;;;;;3.67;0.93;;;;;;;16.01;65.15;101426.75;5033586;28;20485;-71
2022/09/04 02:50:07;;;;;;;3.40;0.97;;;;;;;15.95;65.97;101433.50;5033496;28;20465;-71
2022/09/04 02:52:49;;;;;;;3.20;0.80;;;;;;;15.92;66.15;101434.13;5033576;28;20436;-71
2022/09/04 02:55:28;;;;;;;4.30;1.23;;;;;;;15.88;67.54;101434.75;5033192;28;20427;-71
2022/09/04 02:58:08;;;;;;;6.20;1.00;;;;;;;15.86;67.37;101431.53;5033235;28;20435;-71
2022/09/04 03:00:44;;;;;;;3.20;0.80;;;;;;;15.89;67.59;101430.91;5033117;28;20566;-71
2022/09/04 03:03:18;;;;;;;3.87;0.70;;;;;;;15.86;66.85;101431.53;5033450;28;20438;-71
2022/09/04 03:05:51;;;;;;;3.83;1.33;;;;;;;15.85;67.55;101437.34;5033396;28;20562;-71
2022/09/04 03:08:21;;;;;;;3.63;1.00;;;;;;;15.85;67.19;101423.69;5033297;28;20431;-71
2022/09/04 03:10:55;;;;;;;2.73;0.80;;;;;;;15.85;66.54;101426.41;5033241;28;20529;-71
2022/09/04 03:13:27;;;;;;;3.60;0.83;;;;;;;15.82;65.84;101430.56;5033333;28;20432;-71
2022/09/04 03:16:01;;;;;;;3.10;1.00;;;;;;;15.79;65.97;101433.91;5033228;28;20427;-72
2022/09/04 03:18:30;;;;;;;3.70;1.20;;;;;;;15.72;67.16;101433.59;5033184;28;20423;-72
2022/09/04 03:21:00;;;;;;;4.83;1.13;;;;;;;15.67;67.18;101433.72;5033045;28;20455;-72
2022/09/04 03:23:39;;;;;;;3.57;0.87;;;;;;;15.61;67.64;101441.19;5033136;28;20431;-73
2022/09/04 03:26:15;;;;;;;5.93;1.30;;;;;;;15.66;67.21;101436.75;5032972;28;20474;-72
2022/09/04 03:28:52;;;;;;;3.77;0.90;;;;;;;15.66;68.39;101447.69;5033100;28;20427;-72
2022/09/04 03:31:30;;;;;;;3.23;0.90;;;;;;;15.63;67.67;101443.63;5032830;28;20976;-72
2022/09/04 03:34:08;;;;;;;3.27;0.83;;;;;;;15.61;67.28;101443.94;5034996;28;20428;-73
2022/09/04 03:36:45;;;;;;;3.20;0.90;;;;;;;15.59;67.19;101448.09;5037091;28;20426;-73
2022/09/04 03:39:21;;;;;;;3.00;0.90;;;;;;;15.56;67.48;101449.53;5036712;28;20423;-72
2022/09/04 03:41:58;;;;;;;3.40;1.00;;;;;;;15.58;66.43;101443.75;5036847;28;20470;-72
2022/09/04 03:44:35;;;;;;;5.13;1.17;;;;;;;15.56;67.36;101455.00;5036891;28;20430;-72
2022/09/04 03:47:12;;;;;;;3.10;1.10;;;;;;;15.55;67.39;101455.31;5036807;28;20471;-72
2022/09/04 03:49:50;;;;;;;3.00;0.80;;;;;;;15.52;67.58;101448.53;5036722;28;20839;-72
2022/09/04 03:52:23;;;;;;;5.10;1.37;;;;;;;15.53;68.57;101455.59;5036514;28;20424;-72
2022/09/04 03:55:22;;;;;;;5.90;0.90;;;;;;;15.51;67.55;101451.59;5036425;28;20918;-72
2022/09/04 03:57:58;;;;;;;3.23;0.80;;;;;;;15.50;66.87;101444.53;5036177;28;20450;-72
2022/09/04 04:00:25;;;;;;;4.20;0.93;;;;;;;15.43;67.11;101455.88;5036380;28;21011;-72
2022/09/04 04:03:14;;;;;;;4.37;1.20;;;;;;;15.44;66.92;101449.28;5036515;28;20474;-72
2022/09/04 04:05:51;;;;;;;3.70;1.40;;;;;;;15.37;68.12;101457.13;5036411;28;20847;-71
2022/09/04 04:08:50;;;;;;;3.20;0.90;;;;;;;15.31;67.86;101464.63;5036474;28;20415;-73
2022/09/04 04:11:34;;;;;;;4.10;0.90;;;;;;;15.35;68.00;101462.88;5021272;28;20471;-74
2022/09/04 04:14:25;;;;;;;3.27;0.97;;;;;;;15.32;67.55;101466.25;5036349;28;20449;-72
2022/09/04 04:17:05;;;;;;;2.63;0.63;;;;;;;15.31;66.70;101461.09;5035900;28;20924;-70
2022/09/04 04:19:48;;;;;;;3.70;1.00;;;;;;;15.31;67.62;101467.34;5036214;28;20431;-70
2022/09/04 04:22:43;;;;;;;3.20;0.80;;;;;;;15.29;67.36;101468.81;5036299;28;20435;-74
2022/09/04 04:25:25;;;;;;;6.47;1.07;;;;;;;15.26;67.88;101469.41;5035976;28;20431;-71
2022/09/04 04:28:06;;;;;;;5.80;1.10;;;;;;;15.23;68.86;101476.31;5036167;28;20431;-71
2022/09/04 04:30:44;;;;;;;4.13;1.10;;;;;;;15.22;67.95;101480.13;5036071;28;20520;-71
2022/09/04 04:33:41;;;;;;;4.00;0.90;;;;;;;15.20;67.82;101473.41;5036164;28;20439;-71
2022/09/04 04:36:17;;;;;;;3.17;0.80;;;;;;;15.22;68.33;101473.88;5035809;28;20952;-71
2022/09/04 04:38:55;;;;;;;3.67;1.10;;;;;;;15.21;68.16;101466.81;5035970;28;20493;-70
2022/09/04 04:42:02;;;;;;;3.00;0.87;;;;;;;15.20;68.23;101473.41;5035880;28;20455;-71
2022/09/04 04:45:48;;;;;;;4.50;1.00;;;;;;;15.14;68.04;101470.00;5035296;28;20459;-71
2022/09/04 04:47:34;;;;;;;4.03;1.17;;;;;;;15.09;68.47;101476.34;5035348;28;20514;-70
2022/09/04 04:50:08;;;;;;;3.17;1.03;;;;;;;15.09;69.27;101478.28;5035809;28;20553;-70
2022/09/04 04:52:48;;;;;;;5.10;1.10;;;;;;;15.08;68.56;101472.00;5035772;28;20431;-71
2022/09/04 04:55:24;;;;;;;3.17;0.83;;;;;;;15.07;68.06;101484.06;5035737;28;20427;-70
2022/09/04 04:58:19;;;;;;;3.43;0.97;;;;;;;15.10;68.08;101488.09;5035747;28;20427;-70
2022/09/04 05:00:54;;;;;;;3.50;0.97;;;;;;;15.11;67.16;101492.44;5059808;22;21390;-71
2022/09/04 05:03:31;;;;;;;3.00;0.63;;;;;;;15.10;68.63;101504.47;5035674;28;20434;-71
2022/09/04 05:06:00;;;;;;;2.90;0.77;;;;;;;15.07;67.91;101505.09;5035226;28;21011;-71
2022/09/04 05:08:39;;;;;;;3.67;0.90;;;;;;;15.10;68.56;101513.47;5035480;28;20489;-71
2022/09/04 05:11:17;;;;;;;3.20;1.00;;;;;;;15.12;69.50;101522.13;5034983;28;20819;-71
2022/09/04 05:13:56;;;;;;;3.07;0.70;;;;;;;15.13;68.57;101523.75;5035379;28;20781;-71
2022/09/04 05:16:30;;;;;;;4.07;1.40;;;;;;;15.12;68.77;101524.88;5035372;28;20423;-71
2022/09/04 05:19:01;;;;;;;4.17;1.40;;;;;;;15.18;69.19;101536.47;5035052;28;20910;-72
2022/09/04 05:21:34;;;;;;;4.27;0.97;;;;;;;15.20;69.08;101533.44;5035251;28;20455;-72
2022/09/04 05:24:10;;;;;;;3.10;0.97;;;;;;;15.26;68.35;101543.13;5035197;28;20836;-71
2022/09/04 05:26:45;;;;;;;3.83;1.03;;;;;;;15.27;68.75;101551.00;5034981;28;20983;-73
2022/09/04 05:29:17;;;;;;;3.63;1.10;;;;;;;15.30;67.88;101561.28;5035128;28;20796;-72
2022/09/04 05:31:53;;;;;;;3.33;0.90;;;;;;;15.31;68.78;101551.19;5034763;28;21000;-72
2022/09/04 05:34:28;;;;;;;3.30;0.83;;;;;;;15.36;68.98;101549.16;5035040;28;20418;-71
2022/09/04 05:37:06;;;;;;;3.27;0.80;;;;;;;15.39;68.47;101558.63;5034917;28;20423;-72
2022/09/04 05:39:45;;;;;;;3.10;0.80;;;;;;;15.43;67.12;101567.03;5034997;28;20438;-71
2022/09/04 05:42:38;;;;;;;3.00;0.90;;;;;;;15.45;66.81;101572.97;5034852;28;20470;-72
2022/09/04 05:45:16;;;;;;;2.90;0.73;;;;;;;15.51;68.23;101580.75;5034814;28;20454;-72
2022/09/04 05:47:53;;;;;;;10.10;1.00;;;;;;;15.55;67.15;101586.41;5034511;28;20980;-72
2022/09/04 05:50:36;;;;;;;4.27;1.00;;;;;;;15.54;68.02;101585.59;5034667;28;20427;-73
2022/09/04 05:53:33;;;;;;;3.57;1.03;;;;;;;15.63;66.85;101591.13;5034346;28;20443;-72
2022/09/04 05:56:29;;;;;;;3.20;1.00;;;;;;;15.71;66.87;101587.66;5034044;28;20519;-72
2022/09/04 05:59:11;;;;;;;3.27;1.03;;;;;;;15.88;65.64;101600.63;5031829;28;20459;-72
2022/09/04 06:01:58;;;;;;;3.00;0.70;;;;;;;16.05;65.17;101602.66;5034106;28;20481;-74
2022/09/04 06:04:55;;;;;;;10.87;0.90;;;;;;;16.22;65.85;101608.22;5034500;28;20424;-73
2022/09/04 06:07:29;;;;;;;3.77;0.80;;;;;;;16.32;64.73;101601.66;5019797;28;20996;-74
2022/09/04 06:09:59;;;;;;;4.53;1.20;;;;;;;16.42;63.85;101595.13;5034716;28;20434;-72
2022/09/04 06:13:12;;;;;;;2.97;0.83;;;;;;;16.50;64.32;101600.63;5033909;28;21003;-71
2022/09/04 06:15:50;;;;;;;4.30;0.93;;;;;;;16.58;63.68;101601.78;4973071;28;20512;-72
2022/09/04 06:18:46;;;;;;;3.17;0.70;;;;;;;16.63;63.88;101593.44;5024679;28;20456;-71
2022/09/04 06:21:30;;;;;;;4.10;1.10;;;;;;;16.67;64.05;101597.13;5034248;28;20857;-72
2022/09/04 06:24:14;;;;;;;3.63;1.03;;;;;;;16.72;63.97;101599.75;5033785;28;20431;-72
2022/09/04 06:27:00;;;;;;;3.13;1.10;;;;;;;16.68;61.63;101598.75;5033655;28;20470;-72
2022/09/04 06:29:59;;;;;;;3.10;1.10;;;;;;;16.71;62.47;101603.59;5033994;28;20434;-73
2022/09/04 06:32:41;;;;;;;3.73;1.20;;;;;;;16.67;63.25;101613.56;5023401;28;20479;-72
2022/09/04 06:35:19;;;;;;;3.10;1.03;;;;;;;16.71;63.29;101602.78;5033897;28;20428;-73
2022/09/04 06:38:02;;;;;;;3.73;1.17;;;;;;;16.71;63.86;101605.53;5034005;28;20434;-71
2022/09/04 06:40:44;;;;;;;2.73;0.90;;;;;;;16.76;64.14;101606.22;5033887;28;20432;-72
2022/09/04 06:43:26;;;;;;;3.27;1.10;;;;;;;16.75;64.44;101612.81;5033757;28;20435;-70
2022/09/04 06:46:03;;;;;;;4.03;0.93;;;;;;;16.79;64.03;101611.06;5033481;28;20909;-71
2022/09/04 06:48:42;;;;;;;3.60;1.20;;;;;;;16.82;63.13;101629.59;5033700;28;20459;-72
2022/09/04 06:51:20;;;;;;;3.47;0.80;;;;;;;16.84;63.65;101624.59;5033532;28;20467;-72
2022/09/04 06:53:58;;;;;;;5.00;1.20;;;;;;;16.87;64.12;101626.69;5033465;28;20431;-71
2022/09/04 06:56:47;;;;;;;3.77;1.13;;;;;;;16.95;64.69;101621.53;5033253;28;20423;-72
2022/09/04 06:59:49;;;;;;;3.20;1.00;;;;;;;16.88;63.74;101625.56;5033523;28;20431;-71
2022/09/04 07:02:27;;;;;;;4.83;1.37;;;;;;;16.97;62.45;101633.00;5029276;28;20493;-71
2022/09/04 07:05:03;;;;;;;3.57;1.27;;;;;;;17.02;62.45;101641.84;5033524;28;20477;-72
2022/09/04 07:07:41;;;;;;;3.47;1.20;;;;;;;17.06;64.37;101642.84;5032423;28;20980;-71
2022/09/04 07:10:12;;;;;;;2.97;0.90;;;;;;;17.13;63.79;101642.34;5032906;28;20907;-72
2022/09/04 07:12:55;;;;;;;10.23;1.40;;;;;;;17.18;63.14;101634.00;5032937;28;21057;-73
2022/09/04 07:16:01;;;;;;;3.20;1.00;;;;;;;17.24;64.81;101635.47;5033117;28;20920;-72
2022/09/04 07:18:47;;;;;;;4.60;1.50;;;;;;;17.36;63.64;101640.31;5010188;28;20454;-72
2022/09/04 07:21:24;;;;;;;3.50;1.20;;;;;;;17.43;63.44;101632.41;5033252;28;20466;-72
2022/09/04 07:23:58;;;;;;;3.63;1.13;;;;;;;17.51;63.55;101634.34;5033210;28;20440;-72
2022/09/04 07:26:34;;;;;;;3.33;1.00;;;;;;;17.49;63.62;101639.34;5033182;28;20436;-73
2022/09/04 07:29:18;;;;;;;3.60;1.27;;;;;;;17.56;63.85;101649.81;5033618;28;20427;-73
2022/09/04 07:31:52;;;;;;;8.27;1.43;;;;;;;17.66;63.93;101635.78;5033182;28;20536;-72
2022/09/04 07:34:27;;;;;;;4.37;1.40;;;;;;;17.71;63.12;101634.81;5033225;28;20431;-72
2022/09/04 07:37:00;;;;;;;4.40;1.23;;;;;;;17.78;62.90;101632.44;5033082;28;20438;-73
2022/09/04 07:39:34;;;;;;;5.10;1.30;;;;;;;17.88;63.72;101640.31;5032872;28;20909;-71
2022/09/04 07:42:06;;;;;;;3.80;1.33;;;;;;;17.92;64.47;101643.22;5033058;28;20458;-73
2022/09/04 07:44:39;;;;;;;4.13;1.30;;;;;;;17.99;63.94;101649.03;5033078;28;20849;-72
2022/09/04 07:47:13;;;;;;;3.67;1.50;;;;;;;18.06;64.16;101652.91;5033045;28;20517;-72
2022/09/04 07:49:48;;;;;;;5.00;1.90;;;;;;;18.14;64.00;101653.97;5033071;28;20436;-73
2022/09/04 07:52:26;;;;;;;3.33;0.97;;;;;;;18.19;64.03;101651.06;5033011;28;20455;-70
2022/09/04 07:55:07;;;;;;;4.17;1.50;;;;;;;18.27;63.89;101654.94;5032992;28;20800;-71
2022/09/04 07:58:06;;;;;;;4.43;1.73;;;;;;;18.34;63.86;101658.78;5033003;28;20435;-70
2022/09/04 08:00:43;;;;;;;4.00;1.80;;;;;;;18.37;64.41;101657.31;5032551;28;20550;-72
2022/09/04 08:03:25;;;;;;;3.90;1.40;;;;;;;18.48;63.18;101655.03;5032627;28;20427;-71
2022/09/04 08:05:59;;;;;;;6.40;1.60;;;;;;;18.55;63.66;101666.28;5032926;28;20440;-70
2022/09/04 08:08:57;;;;;;;4.80;2.10;;;;;;;18.63;65.12;101676.44;5032479;28;20834;-71
2022/09/04 08:11:53;;;;;;;4.07;1.53;;;;;;;18.77;62.33;101677.06;5032538;28;20525;-71
2022/09/04 08:14:36;;;;;;;3.70;1.50;;;;;;;18.80;62.62;101681.88;5032874;28;20435;-71
2022/09/04 08:17:42;;;;;;;3.20;1.30;;;;;;;18.83;63.13;101678.47;5032772;28;20441;-72
2022/09/04 08:20:21;;;;;;;5.33;1.63;;;;;;;18.92;62.31;101674.91;5034693;28;20434;-71
2022/09/04 08:22:59;;;;;;;4.13;1.57;;;;;;;18.95;63.69;101671.47;5036341;28;20419;-72
2022/09/04 08:25:28;;;;;;;3.70;1.37;;;;;;;18.99;63.29;101675.16;5036399;28;20427;-73
2022/09/04 08:28:16;;;;;;;4.20;1.63;;;;;;;19.05;63.69;101677.41;5034184;28;20521;-76
2022/09/04 08:30:53;;;;;;;4.47;1.93;;;;;;;19.17;63.97;101682.19;5033661;28;20479;-74
2022/09/04 08:33:44;;;;;;;4.40;2.03;;;;;;;19.28;63.58;101680.66;5036389;28;20462;-73
2022/09/04 08:36:23;;;;;;;4.20;1.80;;;;;;;19.39;61.92;101678.34;5035578;28;20784;-74
2022/09/04 08:39:03;;;;;;;5.10;1.50;;;;;;;19.46;62.28;101672.28;5035984;28;20482;-74
2022/09/04 08:42:07;;;;;;;5.23;2.23;;;;;;;19.48;62.92;101686.50;5036096;28;20553;-72
2022/09/04 08:45:01;;;;;;;3.90;1.50;;;;;;;19.56;62.46;101680.13;5035767;28;20956;-69
2022/09/04 08:48:08;;;;;;;3.93;1.50;;;;;;;19.58;61.29;101677.88;5036255;28;20467;-71
2022/09/04 08:51:16;;;;;;;5.20;1.70;;;;;;;19.73;61.08;101681.97;5035872;28;20505;-71
2022/09/04 08:54:29;;;;;;;5.40;2.20;;;;;;;19.84;61.72;101689.50;4994125;28;20421;-71
2022/09/04 08:57:22;;;;;;;4.57;1.70;;;;;;;19.93;60.39;101677.63;5035835;28;20431;-72
2022/09/04 09:00:08;;;;;;;4.77;1.60;;;;;;;20.12;60.03;101680.66;5035277;28;20444;-71
2022/09/04 09:03:14;;;;;;;4.67;1.73;;;;;;;20.17;58.96;101683.19;5035164;28;20482;-72
2022/09/04 09:06:15;;;;;;;4.53;1.77;;;;;;;20.32;58.66;101688.06;5035629;28;20423;-71
2022/09/04 09:09:16;;;;;;;7.13;1.60;;;;;;;20.44;59.33;101681.75;5035542;28;20475;-71
2022/09/04 09:12:18;;;;;;;3.47;1.37;;;;;;;20.52;58.78;101683.66;5035402;28;20471;-72
2022/09/04 09:15:18;;;;;;;3.30;1.30;;;;;;;20.60;59.34;101687.44;5035214;28;20433;-71
2022/09/04 09:18:00;;;;;;;3.37;1.30;;;;;;;20.62;58.23;101682.38;5004915;28;20451;-71
2022/09/04 09:20:29;;;;;;;4.30;1.53;;;;;;;20.69;56.62;101690.91;5035312;28;20489;-72
2022/09/04 09:23:18;;;;;;;3.70;1.43;;;;;;;20.81;57.34;101684.59;5035294;28;20443;-72
2022/09/04 09:26:11;;;;;;;4.03;1.73;;;;;;;20.94;57.98;101688.13;5035492;28;20419;-71
2022/09/04 09:29:11;;;;;;;3.70;1.37;;;;;;;21.04;57.65;101695.97;5035143;28;20463;-72
2022/09/04 09:32:35;;;;;;;3.40;1.30;;;;;;;21.00;56.55;101684.81;5034092;28;20549;-73
2022/09/04 09:35:29;;;;;;;4.50;1.43;;;;;;;21.03;54.64;101689.66;5019398;28;20447;-72
2022/09/04 09:38:30;;;;;;;4.43;1.40;;;;;;;21.10;55.85;101691.81;5034593;28;20446;-72
2022/09/04 09:41:39;;;;;;;3.50;1.40;;;;;;;21.22;55.88;101693.78;5034671;28;20482;-73
2022/09/04 09:44:38;;;;;;;3.63;1.57;;;;;;;21.31;55.50;101687.00;5034570;28;20796;-73
2022/09/04 09:47:25;;;;;;;3.33;1.30;;;;;;;21.36;53.61;101689.53;5034639;28;20901;-73
2022/09/04 09:50:12;;;;;;;4.07;1.50;;;;;;;21.38;54.19;101695.50;5034800;28;20434;-72
2022/09/04 09:52:55;;;;;;;3.83;1.30;;;;;;;21.45;53.25;101692.16;5034693;28;20478;-71
2022/09/04 09:56:02;;;;;;;3.93;1.57;;;;;;;21.52;53.97;101680.53;5034765;28;20431;-73
2022/09/04 09:59:00;;;;;;;3.97;1.53;;;;;;;21.66;54.17;101687.28;5034534;28;20917;-73
2022/09/04 10:01:44;;;;;;;3.57;1.50;;;;;;;21.80;54.25;101675.84;5021318;28;20487;-72
2022/09/04 10:04:38;;;;;;;3.40;1.20;;;;;;;21.87;54.80;101687.09;5034419;28;20455;-73
2022/09/04 10:07:41;;;;;;;3.47;0.93;;;;;;;22.02;53.11;101693.00;5034388;28;20437;-73
2022/09/04 10:10:55;;;;;;;5.47;1.50;;;;;;;22.17;51.51;101678.44;4978586;28;20449;-73
2022/09/04 10:14:02;;;;;;;4.13;1.27;;;;;;;22.23;52.54;101681.78;4998850;28;20443;-72
2022/09/04 10:17:07;;;;;;;3.30;0.83;;;;;;;22.31;52.97;101681.63;5034025;28;20431;-73
2022/09/04 10:20:15;;;;;;;4.40;1.40;;;;;;;22.36;51.72;101686.06;5038655;28;20802;-73
2022/09/04 10:23:09;;;;;;;3.10;1.13;;;;;;;22.44;52.03;101693.38;5018628;28;20451;-74
2022/09/04 10:26:11;;;;;;;3.93;1.20;;;;;;;22.43;51.75;101686.25;5034222;28;20424;-73
2022/09/04 10:29:13;;;;;;;3.47;1.57;;;;;;;22.51;52.28;101692.75;5033979;28;20483;-73
2022/09/04 10:32:12;;;;;;;4.03;1.30;;;;;;;22.60;52.57;101687.88;5012122;28;20471;-73
2022/09/04 10:34:56;;;;;;;3.73;1.53;;;;;;;22.72;49.71;101686.97;5013560;28;20459;-74
2022/09/04 10:37:40;;;;;;;4.07;1.33;;;;;;;22.78;49.61;101691.88;5033939;28;20429;-73
2022/09/04 10:43:25;;;;;;;4.80;1.60;;;;;;;23.14;50.55;101703.81;5033150;28;20478;-70
2022/09/04 10:46:02;;;;;;;5.30;1.30;;;;;;;23.28;50.05;101706.88;5033585;28;20431;-73
2022/09/04 10:49:05;;;;;;;4.03;1.67;;;;;;;23.46;50.84;101703.72;5040524;28;20466;-73
2022/09/04 10:52:06;;;;;;;4.23;1.43;;;;;;;23.59;48.61;101699.66;5033446;28;20463;-71
2022/09/04 10:54:53;;;;;;;2.90;0.93;;;;;;;23.53;48.04;101701.13;5033594;28;20431;-73
2022/09/04 10:57:38;;;;;;;4.70;1.60;;;;;;;23.64;47.89;101704.91;5033676;28;20449;-73
2022/09/04 11:00:09;;;;;;;4.50;1.67;;;;;;;23.77;46.73;101689.78;5033633;28;20439;-73
2022/09/04 11:03:23;;;;;;;3.00;1.20;;;;;;;23.87;47.95;101686.47;5032986;28;20479;-70
2022/09/04 11:06:15;;;;;;;3.07;1.10;;;;;;;24.19;47.93;101697.34;5033841;28;20496;-72
2022/09/04 11:08:57;;;;;;;3.43;1.43;;;;;;;24.46;48.34;101698.28;5033917;28;20837;-74
2022/09/04 11:11:51;;;;;;;3.87;1.37;;;;;;;24.74;46.77;101697.94;5033338;28;20466;-71
2022/09/04 11:14:37;;;;;;;4.53;1.33;;;;;;;25.07;46.36;101696.50;5033413;28;20446;-71
2022/09/04 11:17:33;;;;;;;3.20;1.13;;;;;;;25.82;44.07;101697.56;5033642;28;20466;-72
2022/09/04 11:20:33;;;;;;;4.33;1.30;;;;;;;26.88;42.80;101700.63;5032723;28;20944;-71
2022/09/04 11:23:43;;;;;;;3.07;1.07;;;;;;;27.93;39.50;101702.81;5033120;28;20423;-71
2022/09/04 11:26:39;;;;;;;3.10;0.90;;;;;;;28.75;38.41;101704.97;5013952;28;20443;-72
2022/09/04 11:29:25;;;;;;;3.53;1.13;;;;;;;29.65;37.43;101714.78;5032832;28;20470;-72
2022/09/04 11:32:17;;;;;;;3.43;1.13;;;;;;;30.49;35.38;101713.94;5033186;28;20478;-73
2022/09/04 11:35:23;;;;;;;4.20;1.57;;;;;;;31.00;34.70;101715.94;5033217;28;20799;-72
2022/09/04 11:38:08;;;;;;;3.13;1.20;;;;;;;31.52;34.46;101707.41;5033478;28;20475;-72
2022/09/04 11:41:14;;;;;;;2.80;0.77;;;;;;;31.89;34.14;101695.34;5033236;28;20497;-72
2022/09/04 11:43:58;;;;;;;3.20;1.20;;;;;;;32.05;33.92;101705.94;5033195;28;20542;-72
2022/09/04 11:46:51;;;;;;;3.60;1.30;;;;;;;32.43;33.52;101702.97;5033049;28;20415;-72
2022/09/04 11:49:58;;;;;;;3.90;1.17;;;;;;;32.77;31.82;101702.03;5033039;28;20816;-71
2022/09/04 11:52:32;;;;;;;11.70;1.20;;;;;;;32.83;31.25;101697.50;5033041;28;20463;-71
2022/09/04 11:55:32;;;;;;;3.10;1.10;;;;;;;32.82;31.84;101695.91;5035017;28;20500;-71
2022/09/04 11:58:23;;;;;;;3.47;1.10;;;;;;;33.09;31.76;101693.84;5037015;28;20431;-71
2022/09/04 12:00:59;;;;;;;3.07;1.00;;;;;;;33.37;31.34;101692.47;5049502;28;20471;-72
2022/09/04 12:03:57;;;;;;;3.23;1.20;;;;;;;33.21;30.54;101692.41;5037031;28;20431;-72
2022/09/04 12:06:39;;;;;;;3.30;1.23;;;;;;;33.07;31.07;101696.28;5036524;28;20454;-73
2022/09/04 12:09:42;;;;;;;3.67;1.27;;;;;;;33.25;30.86;101695.94;5036712;28;20475;-72
2022/09/04 12:12:38;;;;;;;3.73;1.17;;;;;;;33.42;31.74;101688.38;5036366;28;20995;-72
2022/09/04 12:15:19;;;;;;;2.83;0.93;;;;;;;33.72;30.09;101684.56;5036695;28;20854;-71
2022/09/04 12:18:32;;;;;;;3.17;1.07;;;;;;;33.67;29.94;101682.25;5036806;28;20454;-72
2022/09/04 12:21:34;;;;;;;3.10;1.10;;;;;;;34.14;29.69;101685.63;5036540;28;20553;-73
2022/09/04 12:24:19;;;;;;;4.83;1.10;;;;;;;34.14;29.03;101688.44;5036706;28;20426;-73
2022/09/04 12:27:18;;;;;;;5.87;1.60;;;;;;;34.23;30.21;101693.47;5036161;28;20431;-72
2022/09/04 12:30:12;;;;;;;3.67;1.10;;;;;;;33.73;31.14;101679.72;5036352;28;20476;-73
2022/09/04 12:33:13;;;;;;;3.33;1.37;;;;;;;32.67;31.15;101672.91;5036215;28;20463;-74
2022/09/04 12:36:00;;;;;;;4.10;1.13;;;;;;;33.29;31.60;101679.81;5035997;28;20899;-73
2022/09/04 12:39:01;;;;;;;5.83;1.43;;;;;;;33.49;30.99;101688.25;5036195;28;20844;-72
2022/09/04 12:41:35;;;;;;;3.40;1.30;;;;;;;34.24;30.43;101688.63;5034624;28;20474;-72
2022/09/04 12:44:10;;;;;;;4.07;1.37;;;;;;;34.72;29.08;101685.03;5035763;28;20436;-74
2022/09/04 12:46:54;;;;;;;4.10;1.20;;;;;;;35.11;29.07;101689.66;5036270;28;20454;-72